createdAt,value
2023-01-11T00:00:38.974Z,98870.94
2023-01-11T00:03:06.983Z,98859.38
2023-01-11T00:05:38.964Z,98864.75
2023-01-11T00:08:07.129Z,98864.75
2023-01-11T00:10:33.999Z,98860.97
2023-01-11T00:13:01.706Z,98859.91
2023-01-11T00:15:28.516Z,98858.00
2023-01-11T00:17:55.203Z,98858.81
2023-01-11T00:20:22.027Z,98853.97
2023-01-11T00:22:48.845Z,98853.97
2023-01-11T00:25:16.022Z,98850.75
2023-01-11T00:27:42.799Z,98846.97
2023-01-11T00:30:10.524Z,98848.31
2023-01-11T00:32:37.270Z,98834.03
2023-01-11T00:35:04.343Z,98834.31
2023-01-11T00:37:31.045Z,98837.28
2023-01-11T00:39:57.827Z,98832.66
2023-01-11T00:42:43.051Z,98837.28
2023-01-11T00:45:28.992Z,98829.72
2023-01-11T00:48:00.336Z,98827.28
2023-01-11T00:50:30.474Z,98818.41
2023-01-11T00:52:58.898Z,98815.19
2023-01-11T00:55:26.483Z,98814.09
2023-01-11T00:57:53.725Z,98813.28
2023-01-11T01:00:21.842Z,98810.59
2023-01-11T01:02:49.268Z,98809.25
2023-01-11T01:05:17.576Z,98801.44
2023-01-11T01:07:44.972Z,98798.72
2023-01-11T01:10:14.140Z,98797.38
2023-01-11T01:12:59.721Z,98792.25
2023-01-11T01:15:26.561Z,98790.91
2023-01-11T01:17:55.166Z,98780.69
2023-01-11T01:20:23.784Z,98785.53
2023-01-11T01:22:51.388Z,98782.00
2023-01-11T01:25:18.339Z,98790.91
2023-01-11T01:27:47.456Z,98784.44
2023-01-11T01:30:15.697Z,98789.00
2023-01-11T01:32:42.861Z,98780.69
2023-01-11T01:35:09.802Z,98784.16
2023-01-11T01:37:36.911Z,98771.75
2023-01-11T01:40:05.160Z,98766.38
2023-01-11T01:42:31.962Z,98760.44
2023-01-11T01:45:01.217Z,98770.41
2023-01-11T01:47:42.915Z,98765.28
2023-01-11T01:50:14.720Z,98769.06
2023-01-11T01:52:43.962Z,98771.75
2023-01-11T01:55:13.265Z,98773.66
2023-01-11T01:57:42.576Z,98770.97
2023-01-11T02:00:10.818Z,98766.13
2023-01-11T02:02:39.917Z,98760.44
2023-01-11T02:05:08.722Z,98761.50
2023-01-11T02:07:39.394Z,98756.13
2023-01-11T02:10:15.108Z,98752.63
2023-01-11T02:12:50.479Z,98755.03
2023-01-11T02:15:20.481Z,98762.31
2023-01-11T02:17:47.389Z,98762.31
2023-01-11T02:20:17.077Z,98764.47
2023-01-11T02:23:09.666Z,98769.03
2023-01-11T02:26:07.611Z,98757.47
2023-01-11T02:29:02.735Z,98750.16
2023-01-11T02:31:52.550Z,98755.31
2023-01-11T02:34:47.453Z,98759.31
2023-01-11T02:38:04.171Z,98752.31
2023-01-11T02:40:58.841Z,98753.69
2023-01-11T02:43:47.258Z,98753.69
2023-01-11T02:46:29.736Z,98747.22
2023-01-11T02:49:02.504Z,98742.34
2023-01-11T02:51:38.209Z,98741.25
2023-01-11T02:54:12.755Z,98735.03
2023-01-11T02:56:44.095Z,98732.09
2023-01-11T02:59:14.938Z,98732.63
2023-01-11T03:01:51.776Z,98740.19
2023-01-11T03:04:24.891Z,98739.66
2023-01-11T03:07:00.549Z,98749.06
2023-01-11T03:10:02.872Z,98736.41
2023-01-11T03:12:57.110Z,98732.88
2023-01-11T03:15:49.099Z,98715.09
2023-01-11T03:18:26.949Z,98721.56
2023-01-11T03:21:06.437Z,98713.47
2023-01-11T03:23:42.837Z,98707.00
2023-01-11T03:26:38.791Z,98703.22
2023-01-11T03:29:15.538Z,98695.41
2023-01-11T03:32:00.685Z,98704.81
2023-01-11T03:34:40.243Z,98699.69
2023-01-11T03:37:31.267Z,98707.25
2023-01-11T03:40:08.407Z,98713.19
2023-01-11T03:42:58.313Z,98704.81
2023-01-11T03:45:27.435Z,98698.06
2023-01-11T03:47:57.075Z,98693.47
2023-01-11T03:50:28.088Z,98688.06
2023-01-11T03:52:57.413Z,98689.16
2023-01-11T03:55:29.522Z,98691.84
2023-01-11T03:57:57.968Z,98694.56
2023-01-11T04:00:26.584Z,98685.69
2023-01-11T04:02:54.053Z,98681.88
2023-01-11T04:05:20.898Z,98683.50
2023-01-11T04:07:47.671Z,98688.34
2023-01-11T04:10:14.626Z,98682.66
2023-01-11T04:12:41.468Z,98679.16
2023-01-11T04:15:09.460Z,98677.00
2023-01-11T04:17:36.269Z,98674.00
2023-01-11T04:20:03.047Z,98657.81
2023-01-11T04:22:29.801Z,98659.16
2023-01-11T04:24:56.528Z,98660.47
2023-01-11T04:27:23.249Z,98655.91
2023-01-11T04:29:49.986Z,98647.81
2023-01-11T04:32:17.179Z,98635.94
2023-01-11T04:34:44.190Z,98642.13
2023-01-11T04:37:12.212Z,98640.75
2023-01-11T04:39:39.018Z,98642.91
2023-01-11T04:42:21.178Z,98643.16
2023-01-11T04:44:49.991Z,98646.38
2023-01-11T04:47:19.472Z,98640.97
2023-01-11T04:49:46.933Z,98641.50
2023-01-11T04:52:15.496Z,98649.28
2023-01-11T04:54:42.583Z,98641.19
2023-01-11T04:57:12.831Z,98636.88
2023-01-11T04:59:39.762Z,98641.19
2023-01-11T05:02:06.750Z,98640.41
2023-01-11T05:04:34.176Z,98624.78
2023-01-11T05:07:01.029Z,98619.44
2023-01-11T05:09:27.766Z,98623.75
2023-01-11T05:11:54.700Z,98624.78
2023-01-11T05:14:24.823Z,98625.31
2023-01-11T05:16:51.817Z,98626.09
2023-01-11T05:19:18.621Z,98621.53
2023-01-11T05:21:45.433Z,98630.41
2023-01-11T05:24:16.905Z,98632.84
2023-01-11T05:26:45.048Z,98630.38
2023-01-11T05:29:14.335Z,98634.41
2023-01-11T05:31:43.448Z,98625.78
2023-01-11T05:34:12.753Z,98616.66
2023-01-11T05:36:40.212Z,98615.31
2023-01-11T05:39:07.647Z,98615.31
2023-01-11T05:41:34.491Z,98598.53
2023-01-11T05:44:20.088Z,98598.53
2023-01-11T05:46:48.037Z,98600.72
2023-01-11T05:49:14.984Z,98578.59
2023-01-11T05:51:43.067Z,98579.94
2023-01-11T05:54:12.789Z,98586.13
2023-01-11T05:56:39.793Z,98580.75
2023-01-11T05:59:07.093Z,98582.34
2023-01-11T06:01:35.578Z,98578.34
2023-01-11T06:04:02.393Z,98582.13
2023-01-11T06:06:29.670Z,98584.31
2023-01-11T06:08:56.541Z,98584.00
2023-01-11T06:11:23.555Z,98585.34
2023-01-11T06:13:50.224Z,98580.75
2023-01-11T06:16:20.012Z,98587.22
2023-01-11T06:18:48.741Z,98584.53
2023-01-11T06:21:16.888Z,98582.91
2023-01-11T06:23:46.675Z,98579.44
2023-01-11T06:26:16.456Z,98579.69
2023-01-11T06:28:43.617Z,98582.91
2023-01-11T06:31:11.362Z,98585.63
2023-01-11T06:33:38.341Z,98587.78
2023-01-11T06:36:07.504Z,98579.69
2023-01-11T06:38:34.596Z,98576.25
2023-01-11T06:41:03.264Z,98576.81
2023-01-11T06:43:31.763Z,98577.91
2023-01-11T06:45:59.131Z,98574.97
2023-01-11T06:48:27.492Z,98564.16
2023-01-11T06:50:56.623Z,98569.56
2023-01-11T06:53:26.748Z,98558.78
2023-01-11T06:55:57.234Z,98564.69
2023-01-11T06:58:25.528Z,98551.72
2023-01-11T07:00:53.634Z,98564.66
2023-01-11T07:03:21.094Z,98546.84
2023-01-11T07:05:47.852Z,98548.47
2023-01-11T07:08:14.995Z,98553.34
2023-01-11T07:10:43.618Z,98544.16
2023-01-11T07:13:12.130Z,98553.81
2023-01-11T07:15:39.172Z,98554.56
2023-01-11T07:18:06.022Z,98548.31
2023-01-11T07:20:32.845Z,98550.75
2023-01-11T07:23:00.892Z,98541.31
2023-01-11T07:25:28.898Z,98537.50
2023-01-11T07:28:00.424Z,98536.44
2023-01-11T07:30:29.944Z,98545.34
2023-01-11T07:33:00.847Z,98538.59
2023-01-11T07:35:29.125Z,98539.69
2023-01-11T07:37:56.114Z,98547.16
2023-01-11T07:40:22.958Z,98547.13
2023-01-11T07:43:10.786Z,98550.84
2023-01-11T07:45:45.867Z,98549.50
2023-01-11T07:48:13.752Z,98557.81
2023-01-11T07:50:42.829Z,98543.22
2023-01-11T07:53:11.189Z,98534.84
2023-01-11T07:55:39.622Z,98543.16
2023-01-11T07:58:08.057Z,98539.88
2023-01-11T08:00:34.849Z,98538.28
2023-01-11T08:03:02.525Z,98534.47
2023-01-11T08:05:29.937Z,98525.81
2023-01-11T08:07:56.666Z,98523.06
2023-01-11T08:10:24.159Z,98529.44
2023-01-11T08:13:09.833Z,98522.88
2023-01-11T08:15:36.679Z,98526.63
2023-01-11T08:18:05.801Z,98518.22
2023-01-11T08:20:34.387Z,98516.53
2023-01-11T08:23:06.125Z,98522.97
2023-01-11T08:25:33.390Z,98532.91
2023-01-11T08:28:03.036Z,98522.03
2023-01-11T08:30:30.484Z,98521.16
2023-01-11T08:32:57.597Z,98521.91
2023-01-11T08:35:25.869Z,98522.09
2023-01-11T08:37:53.166Z,98531.50
2023-01-11T08:40:21.627Z,98523.91
2023-01-11T08:42:49.785Z,98525.22
2023-01-11T08:45:16.553Z,98528.16
2023-01-11T08:47:43.430Z,98525.66
2023-01-11T08:50:11.343Z,98527.28
2023-01-11T08:52:40.971Z,98529.59
2023-01-11T08:55:08.313Z,98533.25
2023-01-11T08:57:37.509Z,98538.56
2023-01-11T09:00:05.623Z,98519.34
2023-01-11T09:02:34.081Z,98529.38
2023-01-11T09:05:00.812Z,98530.09
2023-01-11T09:07:27.799Z,98525.47
2023-01-11T09:09:54.477Z,98535.78
2023-01-11T09:12:25.065Z,98529.28
2023-01-11T09:14:53.233Z,98533.31
2023-01-11T09:17:19.948Z,98535.19
2023-01-11T09:19:46.682Z,98534.59
2023-01-11T09:22:13.824Z,98536.22
2023-01-11T09:24:40.564Z,98537.31
2023-01-11T09:27:07.502Z,98534.59
2023-01-11T09:29:36.961Z,98548.94
2023-01-11T09:32:04.817Z,98539.44
2023-01-11T09:34:31.868Z,98548.56
2023-01-11T09:37:00.753Z,98544.25
2023-01-11T09:39:28.713Z,98549.06
2023-01-11T09:42:20.851Z,98557.09
2023-01-11T09:44:56.680Z,98564.13
2023-01-11T09:47:36.660Z,98555.63
2023-01-11T09:50:11.319Z,98556.94
2023-01-11T09:52:42.984Z,98551.53
2023-01-11T09:55:15.370Z,98558.78
2023-01-11T09:57:45.295Z,98545.50
2023-01-11T10:00:15.276Z,98542.81
2023-01-11T10:03:00.691Z,98556.84
2023-01-11T10:05:51.528Z,98560.16
2023-01-11T10:18:37.591Z,98553.88
2023-01-11T10:18:38.493Z,98559.50
2023-01-11T10:20:39.866Z,98563.81
2023-01-11T10:23:28.707Z,98558.69
2023-01-11T10:25:59.213Z,98559.00
2023-01-11T10:28:55.839Z,98549.19
2023-01-11T10:31:30.041Z,98547.31
2023-01-11T10:34:24.631Z,98553.13
2023-01-11T10:37:01.859Z,98547.00
2023-01-11T10:39:51.336Z,98547.31
2023-01-11T10:42:22.639Z,98547.00
2023-01-11T10:45:30.041Z,98550.84
2023-01-11T10:48:12.377Z,98543.00
2023-01-11T10:50:48.077Z,98551.03
2023-01-11T10:53:22.160Z,98542.50
2023-01-11T10:56:12.694Z,98547.34
2023-01-11T10:59:00.628Z,98547.34
2023-01-11T11:01:46.354Z,98554.84
2023-01-11T11:04:31.450Z,98551.84
2023-01-11T11:07:14.348Z,98543.63
2023-01-11T11:09:56.256Z,98545.00
2023-01-11T11:12:27.417Z,98542.31
2023-01-11T11:15:21.053Z,98541.19
2023-01-11T11:17:50.861Z,98548.22
2023-01-11T11:20:22.287Z,98546.34
2023-01-11T11:22:51.984Z,98545.00
2023-01-11T11:25:27.377Z,98546.84
2023-01-11T11:28:03.401Z,98552.44
2023-01-11T11:30:38.191Z,98548.13
2023-01-11T11:33:15.081Z,98536.50
2023-01-11T11:35:45.667Z,98534.38
2023-01-11T11:38:24.525Z,98534.38
2023-01-11T11:41:11.181Z,98543.81
2023-01-11T11:43:41.105Z,98546.84
2023-01-11T11:46:28.368Z,98546.34
2023-01-11T11:49:12.069Z,98548.84
2023-01-11T11:51:41.450Z,98542.91
2023-01-11T11:54:21.817Z,98545.13
2023-01-11T11:56:49.447Z,98552.16
2023-01-11T11:59:20.339Z,98545.22
2023-01-11T12:01:55.583Z,98544.22
2023-01-11T12:04:31.176Z,98545.63
2023-01-11T12:07:15.005Z,98551.34
2023-01-11T12:09:47.138Z,98548.13
2023-01-11T12:12:16.706Z,98556.25
2023-01-11T12:14:43.620Z,98563.06
2023-01-11T12:17:25.889Z,98552.34
2023-01-11T12:19:52.864Z,98552.34
2023-01-11T12:22:25.182Z,98549.34
2023-01-11T12:25:19.290Z,98552.56
2023-01-11T12:27:49.163Z,98555.44
2023-01-11T12:30:20.228Z,98556.25
2023-01-11T12:33:09.666Z,98557.56
2023-01-11T12:35:46.964Z,98551.34
2023-01-11T12:38:29.755Z,98562.28
2023-01-11T12:41:21.885Z,98547.41
2023-01-11T12:44:15.272Z,98555.25
2023-01-11T12:47:26.664Z,98556.88
2023-01-11T12:50:08.281Z,98557.97
2023-01-11T12:53:01.287Z,98562.28
2023-01-11T12:55:44.743Z,98552.56
2023-01-11T12:58:22.768Z,98555.75
2023-01-11T13:01:12.761Z,98552.56
2023-01-11T13:04:00.492Z,98552.25
2023-01-11T13:06:35.115Z,98564.69
2023-01-11T13:09:26.976Z,98569.00
2023-01-11T13:11:58.739Z,98580.03
2023-01-11T13:14:40.180Z,98572.53
2023-01-11T13:17:58.525Z,98585.06
2023-01-11T13:21:00.581Z,98596.78
2023-01-11T13:24:08.415Z,98600.41
2023-01-11T13:26:42.644Z,98597.47
2023-01-11T13:29:20.148Z,98604.31
2023-01-11T13:31:48.497Z,98613.53
2023-01-11T13:35:03.133Z,98625.97
2023-01-11T13:37:33.925Z,98628.97
2023-01-11T13:40:18.086Z,98631.16
2023-01-11T13:43:06.539Z,98628.75
2023-01-11T13:45:46.408Z,98634.78
2023-01-11T13:48:26.035Z,98643.00
2023-01-11T13:51:22.312Z,98650.88
2023-01-11T13:54:05.556Z,98658.50
2023-01-11T13:56:39.425Z,98646.88
2023-01-11T13:59:16.586Z,98652.28
2023-01-11T14:01:50.557Z,98657.72
2023-01-11T14:04:44.358Z,98651.69
2023-01-11T14:07:29.807Z,98649.00
2023-01-11T14:10:14.859Z,98654.84
2023-01-11T14:13:01.331Z,98654.44
2023-01-11T14:15:44.242Z,98658.97
2023-01-11T14:18:24.285Z,98672.53
2023-01-11T14:21:12.702Z,98677.44
2023-01-11T14:23:58.525Z,98682.94
2023-01-11T14:26:59.380Z,98690.22
2023-01-11T14:29:59.022Z,98695.44
2023-01-11T14:33:03.202Z,98699.25
2023-01-11T14:35:46.543Z,98712.28
2023-01-11T14:38:16.534Z,98706.38
2023-01-11T14:40:49.450Z,98716.69
2023-01-11T14:43:43.548Z,98714.25
2023-01-11T14:46:27.086Z,98724.31
2023-01-11T14:49:34.275Z,98737.03
2023-01-11T14:52:16.214Z,98753.56
2023-01-11T14:55:01.482Z,98746.53
2023-01-11T14:57:40.433Z,98739.53
2023-01-11T15:00:21.783Z,98744.94
2023-01-11T15:02:58.845Z,98749.84
2023-01-11T15:05:31.746Z,98754.44
2023-01-11T15:08:15.697Z,98757.97
2023-01-11T15:10:50.767Z,98766.38
2023-01-11T15:13:21.892Z,98757.44
2023-01-11T15:16:08.441Z,98768.28
2023-01-11T15:18:45.466Z,98780.72
2023-01-11T15:21:24.963Z,98785.25
2023-01-11T15:23:58.041Z,98790.97
2023-01-11T15:26:26.998Z,98780.41
2023-01-11T15:29:02.847Z,98789.94
2023-01-11T15:32:04.500Z,98789.69
2023-01-11T15:34:40.137Z,98788.09
2023-01-11T15:37:26.554Z,98783.00
2023-01-11T15:40:18.164Z,98790.59
2023-01-11T15:42:47.848Z,98786.56
2023-01-11T15:46:07.061Z,98789.56
2023-01-11T15:49:18.531Z,98810.97
2023-01-11T15:52:19.595Z,98818.59
2023-01-11T15:55:17.580Z,98826.19
2023-01-11T15:58:24.180Z,98828.66
2023-01-11T16:01:14.393Z,98825.94
2023-01-11T16:03:55.173Z,98836.78
2023-01-11T16:06:38.736Z,98848.19
2023-01-11T16:09:23.098Z,98856.81
2023-01-11T16:11:56.281Z,98851.97
2023-01-11T16:14:39.796Z,98856.34
2023-01-11T16:17:14.432Z,98859.63
2023-01-11T16:19:44.938Z,98867.53
2023-01-11T16:22:20.798Z,98857.81
2023-01-11T16:24:52.716Z,98875.13
2023-01-11T16:27:26.824Z,98880.56
2023-01-11T16:29:54.315Z,98884.03
2023-01-11T16:32:33.693Z,98896.78
2023-01-11T16:35:02.664Z,98881.34
2023-01-11T16:37:43.661Z,98897.31
2023-01-11T16:40:10.558Z,98894.59
2023-01-11T16:42:53.461Z,98902.72
2023-01-11T16:45:22.973Z,98884.56
2023-01-11T16:48:11.139Z,98898.41
2023-01-11T16:50:38.204Z,98897.88
2023-01-11T16:53:13.284Z,98904.06
2023-01-11T16:55:42.498Z,98903.56
2023-01-11T16:58:29.809Z,98912.50
2023-01-11T17:01:07.971Z,98899.25
2023-01-11T17:03:41.545Z,98901.16
2023-01-11T17:06:13.368Z,98917.91
2023-01-11T17:08:45.740Z,98928.44
2023-01-11T17:11:23.729Z,98938.72
2023-01-11T17:14:05.870Z,98968.50
2023-01-11T17:17:04.602Z,99006.41
2023-01-11T17:19:34.498Z,98988.50
2023-01-11T17:22:08.750Z,98987.53
2023-01-11T17:24:45.971Z,98982.19
2023-01-11T17:27:19.790Z,98991.75
2023-01-11T17:29:47.732Z,98992.34
2023-01-11T17:32:20.644Z,99002.31
2023-01-11T17:34:50.222Z,99018.56
2023-01-11T17:37:21.699Z,99010.75
2023-01-11T17:39:52.287Z,99012.41
2023-01-11T17:42:38.463Z,99009.47
2023-01-11T17:45:32.138Z,99004.31
2023-01-11T17:48:13.728Z,99020.25
2023-01-11T17:50:54.488Z,99021.59
2023-01-11T17:53:25.578Z,99027.78
2023-01-11T17:56:01.318Z,99033.19
2023-01-11T17:58:35.534Z,99033.44
2023-01-11T18:01:09.435Z,99046.16
2023-01-11T18:03:57.037Z,99048.03
2023-01-11T18:06:45.178Z,99040.50
2023-01-11T18:09:29.059Z,99038.63
2023-01-11T18:12:25.183Z,99034.56
2023-01-11T18:14:58.178Z,99026.47
2023-01-11T18:17:44.645Z,99029.47
2023-01-11T18:20:14.679Z,99035.66
2023-01-11T18:22:56.965Z,99023.53
2023-01-11T18:25:27.945Z,99032.97
2023-01-11T18:28:25.954Z,99039.47
2023-01-11T18:30:54.706Z,99036.50
2023-01-11T18:33:24.144Z,99037.31
2023-01-11T18:35:59.915Z,99036.75
2023-01-11T18:38:29.679Z,99054.03
2023-01-11T18:40:58.800Z,99052.97
2023-01-11T18:43:29.095Z,99051.31
2023-01-11T18:45:56.008Z,99050.22
2023-01-11T18:48:22.901Z,99050.50
2023-01-11T18:50:52.025Z,99046.72
2023-01-11T18:53:18.836Z,99047.81
2023-01-11T18:55:46.460Z,99056.69
2023-01-11T18:58:13.855Z,99068.59
2023-01-11T19:00:41.686Z,99064.53
2023-01-11T19:03:10.522Z,99063.16
2023-01-11T19:05:40.445Z,99063.19
2023-01-11T19:08:07.958Z,99068.28
2023-01-11T19:10:34.948Z,99070.19
2023-01-11T19:13:02.256Z,99081.00
2023-01-11T19:15:29.037Z,99082.06
2023-01-11T19:17:56.253Z,99087.47
2023-01-11T19:20:22.982Z,99092.88
2023-01-11T19:22:49.956Z,99095.56
2023-01-11T19:25:17.210Z,99088.56
2023-01-11T19:27:44.485Z,99090.72
2023-01-11T19:30:12.152Z,99094.22
2023-01-11T19:32:39.425Z,99095.84
2023-01-11T19:35:08.366Z,99086.97
2023-01-11T19:37:37.293Z,99097.47
2023-01-11T19:40:05.768Z,99099.91
2023-01-11T19:42:32.974Z,99105.31
2023-01-11T19:44:59.813Z,99086.66
2023-01-11T19:47:26.667Z,99100.47
2023-01-11T19:49:56.420Z,99091.00
2023-01-11T19:52:27.065Z,99106.13
2023-01-11T19:54:56.998Z,99102.34
2023-01-11T19:57:23.886Z,99109.66
2023-01-11T19:59:52.746Z,99105.88
2023-01-11T20:02:22.033Z,99107.47
2023-01-11T20:04:48.859Z,99112.88
2023-01-11T20:07:16.509Z,99099.63
2023-01-11T20:09:43.732Z,99105.03
2023-01-11T20:12:12.327Z,99101.25
2023-01-11T20:14:40.465Z,99099.38
2023-01-11T20:17:10.605Z,99090.19
2023-01-11T20:19:37.767Z,99089.66
2023-01-11T20:22:04.696Z,99102.63
2023-01-11T20:24:31.630Z,99103.16
2023-01-11T20:27:00.714Z,99097.75
2023-01-11T20:29:28.247Z,99108.81
2023-01-11T20:31:55.832Z,99109.09
2023-01-11T20:34:23.514Z,99112.59
2023-01-11T20:36:51.494Z,99108.56
2023-01-11T20:39:18.318Z,99112.88
2023-01-11T20:41:48.866Z,99112.06
2023-01-11T20:44:24.932Z,99105.56
2023-01-11T20:46:52.752Z,99112.34
2023-01-11T20:49:23.764Z,99107.47
2023-01-11T20:51:50.687Z,99100.44
2023-01-11T20:54:17.639Z,99107.72
2023-01-11T20:56:46.912Z,99119.34
2023-01-11T20:59:20.223Z,99109.91
2023-01-11T21:01:48.405Z,99109.63
2023-01-11T21:04:17.100Z,99102.06
2023-01-11T21:06:46.408Z,99112.59
2023-01-11T21:09:15.385Z,99113.94
2023-01-11T21:11:44.214Z,99113.66
2023-01-11T21:14:13.843Z,99098.78
2023-01-11T21:16:41.938Z,99100.97
2023-01-11T21:19:15.660Z,99115.03
2023-01-11T21:21:42.648Z,99105.84
2023-01-11T21:24:15.509Z,99098.81
2023-01-11T21:26:43.640Z,99100.97
2023-01-11T21:29:11.735Z,99090.44
2023-01-11T21:31:39.948Z,99092.34
2023-01-11T21:34:06.826Z,99093.66
2023-01-11T21:36:34.506Z,99086.13
2023-01-11T21:39:02.466Z,99089.09
2023-01-11T21:41:50.472Z,99106.94
2023-01-11T21:44:18.770Z,99093.97
2023-01-11T21:46:46.550Z,99103.94
2023-01-11T21:49:14.720Z,99091.81
2023-01-11T21:51:42.457Z,99090.19
2023-01-11T21:54:12.777Z,99095.84
2023-01-11T21:56:41.714Z,99101.53
2023-01-11T21:59:09.261Z,99104.50
2023-01-11T22:01:37.313Z,99092.88
2023-01-11T22:04:06.215Z,99096.38
2023-01-11T22:06:37.772Z,99089.88
2023-01-11T22:09:05.323Z,99086.94
2023-01-11T22:11:35.538Z,99092.34
2023-01-11T22:14:03.100Z,99083.72
2023-01-11T22:16:31.591Z,99095.03
2023-01-11T22:19:01.236Z,99106.09
2023-01-11T22:21:28.343Z,99106.41
2023-01-11T22:23:57.400Z,99108.56
2023-01-11T22:26:25.273Z,99097.75
2023-01-11T22:29:12.417Z,99097.22
2023-01-11T22:32:01.519Z,99109.91
2023-01-11T22:34:28.521Z,99119.09
2023-01-11T22:36:55.421Z,99119.91
2023-01-11T22:39:22.386Z,99129.09
2023-01-11T22:41:49.371Z,99121.25
2023-01-11T22:44:17.754Z,99116.41
2023-01-11T22:46:45.052Z,99115.56
2023-01-11T22:49:12.126Z,99115.03
2023-01-11T22:51:40.535Z,99111.25
2023-01-11T22:54:07.679Z,99114.25
2023-01-11T22:56:34.429Z,99107.78
2023-01-11T22:59:01.988Z,99110.19
2023-01-11T23:01:34.242Z,99106.41
2023-01-11T23:04:02.328Z,99116.69
2023-01-11T23:06:32.078Z,99123.72
2023-01-11T23:08:59.283Z,99126.69
2023-01-11T23:11:47.725Z,99131.81
2023-01-11T23:14:19.861Z,99120.22
2023-01-11T23:16:48.571Z,99122.09
2023-01-11T23:19:17.685Z,99111.84
2023-01-11T23:21:45.585Z,99116.19
2023-01-11T23:24:13.641Z,99108.63
2023-01-11T23:26:40.768Z,99114.31
2023-01-11T23:29:07.632Z,99115.09
2023-01-11T23:31:35.219Z,99105.13
2023-01-11T23:34:03.971Z,99111.06
2023-01-11T23:36:33.706Z,99110.53
2023-01-11T23:39:00.631Z,99104.06
2023-01-11T23:41:45.938Z,99110.00
2023-01-11T23:44:15.253Z,99105.69
2023-01-11T23:47:01.299Z,99119.44
2023-01-11T23:49:28.848Z,99115.09
2023-01-11T23:51:55.863Z,99108.63
2023-01-11T23:54:25.789Z,99116.72
2023-01-11T23:56:52.557Z,99104.59
2023-01-11T23:59:19.310Z,99105.13
